Omaha, NE

6:00 PM CDT on April 27, 2017 (GMT -0500)
Millard Municipal | | Change Station

Elev 1050 ft 41.20 °N, 96.12 °W | Updated 5 minutes ago

Scattered Clouds
Scattered Clouds
58 °F
Feels Like 58 °F
N
0
Wind Variable Wind from North

Today
High -- | Low -- °F
--% Chance of Precip.
Yesterday
High -- | Low -- °F
Precip. -- in
Pressure 29.70 in
Visibility 10.0 miles
Clouds Scattered Clouds 11000 ft
Dew Point 34 °F
Humidity 41%
Rainfall 0.00 in
Snow Depth Not available.
6:27 AM 8:17 PM
Waxing Crescent, 3% visible
METAR KMLE 272255Z AUTO 00000KT 10SM SCT110 15/01 A2970 RMK AO2 T01460014
Pressure 29.70 in
Visibility 10.0 miles
Clouds Scattered Clouds 11000 ft
Dew Point 34 °F
Humidity 41%
Rainfall 0.00 in
Snow Depth Not available.
6:27 AM 8:17 PM
Waxing Crescent, 3% visible
METAR KMLE 272255Z AUTO 00000KT 10SM SCT110 15/01 A2970 RMK AO2 T01460014

Get Severe Weather Alerts

Thanks for signing up!

Be on the lookout for a verification email in your inbox.

You'll start receiving the daily forecast at 8 AM.

×

10-Day Weather Forecast

Almanac

Astronomy

Apr. 27, 2017 Rise Set
Actual Time
Civil Twilight
Nautical Twilight
Astronomical Twilight
Moon
Length of Visible Light
Length of Day
Tomorrow will be .
, % of the Moon is Illuminated

Today's Extremes

State Highs State Lows

Community

WunderPhotos

WunderBlog® & News

Nearby

Air Quality

  Air Quality AQ Index Pollutant
Not available.

Snow Depth

Station Depth Elevation

Earthquake Activity

City Distance Mag. Time & Date
Minimum magnitude displayed is 2.5.

Coastal Water Temperatures

Place Temperature

Stations

Nearby Weather Stations

Station Location Temp. Windchill Dew Point Humidity Wind Precip. Elev Updated Type
                   

Watches & Warnings

There are currently no watches in effect.